Time;durP1;ratioP1;P1;durP2;ratioP2;P2;SDS_P1;SDS_P2;PMS_P1;PMS_P2;Temp;Humidity;BMP_temperature;BMP_pressure;BME280_temperature;BME280_humidity;BME280_pressure;Samples;Min_cycle;Max_cycle;Signal;HPM_P1;HPM_P2
2022/12/02 00:01:14;;;;;;;8.90;7.63;;;21.40;80.40;;;;;;5003816;28;20559;-78
2022/12/02 00:03:41;;;;;;;7.40;6.50;;;21.40;80.60;;;;;;4990240;28;20463;-78
2022/12/02 00:06:15;;;;;;;8.57;7.28;;;21.40;80.60;;;;;;4987559;28;20459;-77
2022/12/02 00:08:41;;;;;;;10.07;8.80;;;21.40;80.70;;;;;;4986678;28;20566;-78
2022/12/02 00:11:25;;;;;;;7.10;6.30;;;21.40;80.60;;;;;;4984999;28;20963;-80
2022/12/02 00:13:55;;;;;;;7.87;6.70;;;21.50;80.60;;;;;;4984037;28;20452;-78
2022/12/02 00:16:24;;;;;;;8.23;6.25;;;21.40;80.50;;;;;;4993251;28;20506;-79
2022/12/02 00:18:52;;;;;;;9.93;7.40;;;21.50;80.30;;;;;;4993286;28;20287;-83
2022/12/02 00:21:21;;;;;;;9.13;7.10;;;21.60;80.10;;;;;;4985838;28;20459;-77
2022/12/02 00:23:48;;;;;;;9.00;6.90;;;21.50;80.20;;;;;;4990158;28;20878;-76
2022/12/02 00:26:15;;;;;;;8.45;6.72;;;21.50;80.40;;;;;;4989597;28;20972;-77
2022/12/02 00:28:41;;;;;;;16.02;6.68;;;21.50;80.30;;;;;;4986541;28;20219;-76
2022/12/02 00:31:10;;;;;;;10.93;6.70;;;21.40;80.30;;;;;;4990626;28;20564;-76
2022/12/02 00:33:36;;;;;;;9.07;7.15;;;21.40;80.30;;;;;;4982570;28;20459;-76
2022/12/02 00:36:03;;;;;;;13.40;7.20;;;21.40;80.60;;;;;;4985757;28;20197;-75
2022/12/02 00:38:30;;;;;;;14.40;8.30;;;21.30;80.60;;;;;;4991399;28;20243;-75
2022/12/02 00:40:56;;;;;;;8.07;7.27;;;21.40;80.80;;;;;;4989230;28;20201;-75
2022/12/02 00:48:52;;;;;;;8.35;7.15;;;21.50;80.40;;;;;;4986794;28;20243;-75
2022/12/02 00:51:19;;;;;;;10.20;7.53;;;21.50;80.50;;;;;;4998960;28;20201;-75
2022/12/02 00:53:46;;;;;;;8.98;7.60;;;21.50;80.50;;;;;;4998263;28;20181;-76
2022/12/02 00:56:13;;;;;;;8.70;7.50;;;21.50;80.40;;;;;;4992253;28;20208;-75
2022/12/02 00:58:39;;;;;;;16.63;7.90;;;21.50;80.30;;;;;;4989506;28;20824;-76
2022/12/02 01:01:06;;;;;;;11.27;8.50;;;21.50;80.40;;;;;;4995149;28;20459;-76
2022/12/02 01:03:33;;;;;;;9.38;8.07;;;21.50;80.40;;;;;;4993860;28;20982;-76
2022/12/02 01:06:01;;;;;;;7.97;7.17;;;21.50;80.20;;;;;;4988916;28;20201;-76
2022/12/02 01:08:27;;;;;;;10.53;7.50;;;21.50;80.10;;;;;;4990507;28;20478;-76
2022/12/02 01:10:55;;;;;;;10.93;8.37;;;21.40;80.20;;;;;;4991382;28;20459;-75
2022/12/02 01:13:22;;;;;;;13.65;7.35;;;21.40;80.40;;;;;;4990280;28;20920;-75
2022/12/02 01:15:49;;;;;;;9.27;8.32;;;21.30;80.80;;;;;;4995209;28;20231;-76
2022/12/02 01:18:16;;;;;;;11.53;7.17;;;21.30;80.80;;;;;;4997178;28;20200;-76
2022/12/02 01:20:43;;;;;;;11.33;8.40;;;21.30;80.60;;;;;;4996809;28;20460;-76
2022/12/02 01:23:11;;;;;;;8.73;7.82;;;21.30;80.50;;;;;;4998489;28;20850;-76
2022/12/02 01:25:38;;;;;;;10.00;8.23;;;21.40;80.40;;;;;;4997116;28;20307;-76
2022/12/02 01:28:05;;;;;;;11.60;8.03;;;21.40;80.60;;;;;;4984334;28;20668;-76
2022/12/02 01:30:32;;;;;;;13.00;8.93;;;21.40;80.50;;;;;;4994858;28;20460;-75
2022/12/02 01:32:59;;;;;;;9.63;8.20;;;21.30;80.40;;;;;;4992640;28;20962;-76
2022/12/02 01:35:25;;;;;;;13.35;8.60;;;21.40;80.40;;;;;;4995769;28;20208;-75
2022/12/02 01:37:52;;;;;;;12.48;8.10;;;21.40;80.30;;;;;;4991496;28;20212;-76
2022/12/02 01:40:21;;;;;;;10.47;8.67;;;21.40;80.20;;;;;;4999767;28;20202;-76
2022/12/02 01:42:49;;;;;;;10.93;7.73;;;21.40;81.00;;;;;;4995298;28;20459;-76
2022/12/02 01:45:16;;;;;;;12.20;8.30;;;21.40;80.30;;;;;;4994493;28;20460;-76
2022/12/02 01:47:43;;;;;;;11.20;8.40;;;21.30;80.20;;;;;;4998897;28;20467;-76
2022/12/02 01:50:12;;;;;;;11.40;8.60;;;21.40;80.20;;;;;;4989266;28;20470;-75
2022/12/02 01:52:39;;;;;;;12.90;8.73;;;21.30;80.00;;;;;;4988693;28;20460;-75
2022/12/02 01:55:11;;;;;;;8.05;7.25;;;21.30;80.20;;;;;;4994359;28;20479;-74
2022/12/02 01:57:39;;;;;;;11.83;9.00;;;21.20;80.30;;;;;;4992827;28;20512;-75
2022/12/02 02:00:08;;;;;;;9.30;7.80;;;21.10;80.50;;;;;;4998867;28;20453;-75
2022/12/02 02:02:36;;;;;;;11.32;8.65;;;21.20;80.30;;;;;;4997270;28;20452;-75
2022/12/02 02:05:09;;;;;;;8.90;7.80;;;21.20;80.30;;;;;;4992408;28;20206;-75
2022/12/02 02:07:37;;;;;;;9.60;7.40;;;21.20;80.20;;;;;;4992947;28;20985;-75
2022/12/02 02:10:05;;;;;;;11.97;9.23;;;21.20;80.20;;;;;;4991566;28;20216;-75
2022/12/02 02:12:32;;;;;;;10.00;8.43;;;21.20;80.20;;;;;;4990757;28;20456;-75
2022/12/02 02:15:03;;;;;;;11.97;9.27;;;21.30;80.20;;;;;;4996382;28;20220;-75
2022/12/02 02:17:29;;;;;;;10.35;7.80;;;21.40;79.90;;;;;;4988707;28;21045;-75
2022/12/02 02:19:56;;;;;;;9.75;7.63;;;21.30;79.70;;;;;;4991710;28;20285;-75
2022/12/02 02:22:27;;;;;;;11.53;7.57;;;21.30;79.90;;;;;;4993873;28;20212;-75
2022/12/02 02:24:55;;;;;;;9.70;7.25;;;21.30;79.90;;;;;;4993293;28;20466;-76
2022/12/02 02:27:22;;;;;;;9.37;7.47;;;21.20;79.80;;;;;;5002677;28;20703;-76
2022/12/02 02:29:49;;;;;;;10.13;7.90;;;21.20;79.90;;;;;;4993391;28;20479;-75
2022/12/02 02:32:16;;;;;;;9.27;7.43;;;21.20;79.80;;;;;;5000370;28;20470;-76
2022/12/02 02:34:43;;;;;;;9.73;7.80;;;21.20;79.70;;;;;;4992912;28;20307;-76
2022/12/02 02:37:09;;;;;;;10.00;8.00;;;21.20;79.60;;;;;;4999839;28;20467;-75
2022/12/02 02:39:36;;;;;;;11.18;7.90;;;21.20;79.90;;;;;;5002126;28;20209;-76
2022/12/02 02:42:04;;;;;;;11.82;9.13;;;21.20;79.90;;;;;;4994066;28;20679;-75
2022/12/02 02:44:32;;;;;;;9.43;7.47;;;21.20;79.80;;;;;;4996202;28;20197;-75
2022/12/02 02:46:59;;;;;;;9.90;7.80;;;21.20;79.70;;;;;;4995450;28;20929;-76
2022/12/02 02:49:26;;;;;;;10.27;8.23;;;21.20;79.70;;;;;;4988388;28;20483;-75
2022/12/02 02:51:53;;;;;;;8.55;7.28;;;21.20;79.70;;;;;;4990836;28;20470;-76
2022/12/02 02:54:20;;;;;;;10.65;8.18;;;21.20;79.60;;;;;;4993641;28;20693;-75
2022/12/02 02:56:47;;;;;;;10.30;7.90;;;21.20;79.50;;;;;;5002303;28;20668;-76
2022/12/02 02:59:16;;;;;;;9.37;6.63;;;21.20;79.50;;;;;;4992483;28;20464;-75
2022/12/02 03:01:44;;;;;;;10.90;7.95;;;21.20;79.50;;;;;;4991864;28;20839;-76
2022/12/02 03:04:14;;;;;;;11.20;7.77;;;21.20;79.60;;;;;;4988410;28;20255;-76
2022/12/02 03:06:43;;;;;;;9.80;7.05;;;21.20;79.60;;;;;;4990621;28;20464;-76
2022/12/02 03:09:12;;;;;;;11.53;8.30;;;21.20;80.30;;;;;;4994406;28;20220;-75
2022/12/02 03:11:41;;;;;;;10.57;7.53;;;21.20;79.40;;;;;;5000416;28;20456;-76
2022/12/02 03:14:10;;;;;;;9.30;7.55;;;21.10;79.40;;;;;;4995929;28;20822;-75
2022/12/02 03:16:39;;;;;;;7.50;6.70;;;21.10;79.50;;;;;;4990996;28;20229;-76
2022/12/02 03:19:06;;;;;;;9.57;7.40;;;21.10;79.60;;;;;;4992867;28;20463;-75
2022/12/02 03:21:33;;;;;;;11.40;7.97;;;21.10;79.50;;;;;;4991261;28;20459;-76
2022/12/02 03:24:02;;;;;;;9.88;8.07;;;21.10;79.50;;;;;;5000049;28;20463;-75
2022/12/02 03:26:30;;;;;;;9.05;7.68;;;21.10;79.30;;;;;;4990810;28;20205;-75
2022/12/02 03:28:57;;;;;;;9.37;8.00;;;21.10;79.40;;;;;;4996814;28;20695;-75
2022/12/02 03:31:25;;;;;;;7.88;7.10;;;21.10;79.30;;;;;;4998122;28;20479;-75
2022/12/02 03:33:54;;;;;;;8.77;6.93;;;21.10;79.20;;;;;;4993833;28;20205;-76
2022/12/02 03:36:21;;;;;;;11.60;8.30;;;21.10;79.20;;;;;;5004388;28;20545;-76
2022/12/02 03:38:48;;;;;;;9.40;7.47;;;21.10;79.20;;;;;;4992719;28;20500;-76
2022/12/02 03:41:15;;;;;;;7.60;6.57;;;21.10;79.20;;;;;;4994870;28;20464;-75
2022/12/02 03:43:42;;;;;;;9.25;8.35;;;21.10;79.40;;;;;;4989803;28;20196;-75
2022/12/02 03:46:10;;;;;;;7.93;7.10;;;21.10;79.20;;;;;;4994174;28;20215;-75
2022/12/02 03:48:38;;;;;;;10.80;7.40;;;21.10;79.20;;;;;;4992295;28;20275;-76
2022/12/02 03:51:07;;;;;;;8.73;7.60;;;21.10;79.20;;;;;;4996026;28;20200;-76
2022/12/02 03:53:35;;;;;;;9.35;7.80;;;21.00;79.10;;;;;;4998673;28;20197;-76
2022/12/02 03:56:03;;;;;;;8.90;6.93;;;21.00;79.20;;;;;;4995539;28;20653;-75
2022/12/02 03:58:35;;;;;;;9.82;7.28;;;21.00;79.20;;;;;;4999838;28;20200;-76
2022/12/02 04:01:01;;;;;;;8.93;7.55;;;21.00;79.20;;;;;;4991192;28;20587;-77
2022/12/02 04:03:28;;;;;;;10.35;9.10;;;21.00;79.10;;;;;;4995368;28;20218;-76
2022/12/02 04:05:55;;;;;;;9.45;7.85;;;21.00;79.10;;;;;;4988877;28;20209;-76
2022/12/02 04:08:23;;;;;;;7.33;6.50;;;21.00;79.20;;;;;;4991383;28;20201;-77
2022/12/02 04:10:49;;;;;;;9.20;7.63;;;21.00;79.20;;;;;;4995478;28;20467;-77
2022/12/02 04:13:16;;;;;;;8.50;7.35;;;21.00;79.00;;;;;;4988044;28;20197;-77
2022/12/02 04:15:43;;;;;;;14.38;7.30;;;21.00;79.00;;;;;;4990706;28;20232;-77
2022/12/02 04:18:10;;;;;;;9.90;6.93;;;20.90;79.20;;;;;;4999077;28;20216;-77
2022/12/02 04:20:36;;;;;;;7.72;6.72;;;20.90;79.30;;;;;;4991916;28;20459;-77
2022/12/02 04:23:03;;;;;;;8.18;7.05;;;20.80;79.50;;;;;;4998818;28;20207;-77
2022/12/02 04:25:31;;;;;;;8.77;7.88;;;20.70;79.60;;;;;;4988913;28;20668;-77
2022/12/02 04:27:58;;;;;;;11.15;7.07;;;20.70;79.90;;;;;;4991240;28;20201;-77
2022/12/02 04:30:25;;;;;;;8.25;6.65;;;20.70;79.90;;;;;;4990911;28;20235;-77
2022/12/02 04:32:52;;;;;;;9.18;7.80;;;20.80;79.60;;;;;;4998599;28;20668;-77
2022/12/02 04:35:18;;;;;;;8.13;7.03;;;20.90;79.10;;;;;;4990027;28;20196;-77
2022/12/02 04:37:45;;;;;;;7.97;7.00;;;21.00;78.90;;;;;;5006015;28;20673;-77
2022/12/02 04:40:13;;;;;;;8.90;7.25;;;21.10;78.60;;;;;;5004259;28;20203;-77
2022/12/02 04:42:41;;;;;;;9.93;7.28;;;21.10;78.20;;;;;;4990260;28;20289;-77
2022/12/02 04:45:09;;;;;;;7.75;6.90;;;21.20;78.10;;;;;;4994427;28;20208;-77
2022/12/02 04:47:36;;;;;;;8.70;6.70;;;21.20;78.00;;;;;;5005218;28;20216;-76
2022/12/02 04:50:04;;;;;;;9.65;7.05;;;21.20;77.80;;;;;;4988489;28;20230;-77
2022/12/02 04:52:30;;;;;;;8.60;6.97;;;21.20;77.60;;;;;;4994047;28;20205;-77
2022/12/02 04:54:57;;;;;;;8.03;7.23;;;21.30;77.60;;;;;;5001448;28;20196;-77
2022/12/02 04:57:24;;;;;;;8.20;7.20;;;21.30;77.40;;;;;;4995131;28;20437;-77
2022/12/02 04:59:52;;;;;;;6.93;6.27;;;21.30;77.20;;;;;;5004940;28;20663;-77
2022/12/02 05:02:19;;;;;;;8.77;7.10;;;21.30;77.10;;;;;;4995770;28;20483;-76
2022/12/02 05:04:45;;;;;;;7.87;6.70;;;21.40;77.10;;;;;;4987460;28;20460;-77
2022/12/02 05:07:12;;;;;;;7.38;6.40;;;21.40;77.00;;;;;;5000977;28;20459;-77
2022/12/02 05:09:39;;;;;;;6.57;5.93;;;21.30;76.90;;;;;;4991682;28;20217;-77
2022/12/02 05:12:06;;;;;;;8.20;7.40;;;21.40;76.90;;;;;;4998279;28;20531;-77
2022/12/02 05:14:32;;;;;;;8.00;7.00;;;21.30;76.90;;;;;;4990928;28;20465;-76
2022/12/02 05:17:00;;;;;;;11.00;7.53;;;21.30;76.90;;;;;;5008057;28;20958;-77
2022/12/02 05:19:27;;;;;;;10.20;7.40;;;21.30;76.90;;;;;;4986676;28;20457;-77
2022/12/02 05:21:54;;;;;;;8.47;7.20;;;21.30;76.90;;;;;;4987958;28;20487;-77
2022/12/02 05:24:21;;;;;;;8.97;7.57;;;21.30;76.90;;;;;;4998169;28;20567;-77
2022/12/02 05:26:47;;;;;;;8.90;6.53;;;21.30;76.90;;;;;;4993139;28;20490;-77
2022/12/02 05:29:14;;;;;;;8.90;6.90;;;21.30;77.00;;;;;;4993730;28;20939;-77
2022/12/02 05:31:41;;;;;;;7.73;6.27;;;21.30;77.10;;;;;;4996888;28;20455;-77
2022/12/02 05:34:09;;;;;;;7.90;7.07;;;21.20;77.00;;;;;;4987871;28;20842;-77
2022/12/02 05:36:35;;;;;;;8.93;7.57;;;21.30;77.10;;;;;;5002160;28;20458;-77
2022/12/02 05:39:02;;;;;;;8.17;7.00;;;21.30;77.10;;;;;;4992015;28;20189;-77
2022/12/02 05:41:29;;;;;;;7.47;6.70;;;21.20;77.00;;;;;;4989964;28;20959;-77
2022/12/02 05:43:57;;;;;;;8.17;6.27;;;21.20;77.00;;;;;;5002213;28;20466;-77
2022/12/02 05:46:24;;;;;;;7.73;6.33;;;21.20;77.00;;;;;;4999000;28;20463;-77
2022/12/02 05:48:51;;;;;;;9.03;8.03;;;21.20;77.00;;;;;;4991752;28;20458;-77
2022/12/02 05:51:21;;;;;;;10.07;7.50;;;21.20;77.00;;;;;;4992260;28;20461;-77
2022/12/02 05:53:49;;;;;;;7.37;6.33;;;21.20;77.10;;;;;;4994135;28;20459;-76
2022/12/02 05:56:23;;;;;;;7.40;6.50;;;21.20;77.10;;;;;;5004558;28;20478;-77
2022/12/02 05:58:50;;;;;;;7.50;6.67;;;21.20;77.10;;;;;;4989264;28;20192;-77
2022/12/02 06:01:21;;;;;;;8.00;6.60;;;21.20;77.00;;;;;;4991804;28;20467;-76
2022/12/02 06:03:47;;;;;;;8.30;7.43;;;21.20;77.00;;;;;;4992726;28;20447;-77
2022/12/02 06:06:15;;;;;;;7.80;6.47;;;21.10;77.20;;;;;;5005404;28;20451;-77
2022/12/02 06:08:43;;;;;;;6.70;6.00;;;21.20;77.20;;;;;;4985314;28;20492;-76
2022/12/02 06:11:23;;;;;;;9.27;6.73;;;21.20;77.00;;;;;;4992869;28;20556;-76
2022/12/02 06:13:51;;;;;;;8.60;7.20;;;21.20;77.00;;;;;;4989500;28;20792;-76
2022/12/02 06:16:23;;;;;;;9.43;8.43;;;21.20;77.00;;;;;;4999368;28;20262;-77
2022/12/02 06:18:50;;;;;;;8.67;7.00;;;21.20;77.00;;;;;;4990951;28;20842;-77
2022/12/02 06:21:20;;;;;;;7.53;6.43;;;21.10;77.00;;;;;;4996935;28;20483;-76
2022/12/02 06:23:50;;;;;;;7.37;6.00;;;21.10;77.00;;;;;;4996109;28;20455;-76
2022/12/02 06:26:19;;;;;;;8.43;7.10;;;21.10;77.00;;;;;;4992390;28;20452;-77
2022/12/02 06:28:48;;;;;;;8.10;7.20;;;21.10;77.00;;;;;;4996401;28;20471;-77
2022/12/02 06:31:18;;;;;;;9.13;6.93;;;21.20;76.90;;;;;;4998039;28;20474;-77
2022/12/02 06:33:47;;;;;;;7.83;7.00;;;21.10;76.90;;;;;;4992746;28;20476;-77
2022/12/02 06:36:17;;;;;;;9.03;7.07;;;21.20;76.90;;;;;;5002086;28;20460;-76
2022/12/02 06:38:50;;;;;;;8.53;7.20;;;21.20;76.80;;;;;;5000606;28;20463;-76
2022/12/02 06:41:20;;;;;;;7.33;6.60;;;21.20;76.80;;;;;;4991957;28;20958;-77
2022/12/02 06:46:29;;;;;;;7.53;6.73;;;21.20;76.60;;;;;;5002780;28;20942;-76
2022/12/02 06:48:57;;;;;;;8.43;6.80;;;21.20;76.80;;;;;;4994991;28;20467;-77
2022/12/02 06:51:23;;;;;;;8.07;7.00;;;21.20;76.80;;;;;;4997385;28;20837;-76
2022/12/02 06:53:51;;;;;;;8.30;6.72;;;21.20;76.70;;;;;;5005762;28;20830;-77
2022/12/02 06:56:22;;;;;;;8.00;7.20;;;21.20;76.70;;;;;;5000937;28;20198;-77
2022/12/02 06:58:56;;;;;;;8.88;6.35;;;21.20;76.70;;;;;;4991676;28;20542;-77
2022/12/02 07:01:31;;;;;;;7.65;6.68;;;21.20;76.70;;;;;;5003542;28;20564;-77
2022/12/02 07:04:24;;;;;;;9.93;7.50;;;21.20;76.70;;;;;;4987865;28;20204;-77
2022/12/02 07:06:52;;;;;;;9.73;7.77;;;21.20;76.70;;;;;;5005820;28;20781;-76
2022/12/02 07:09:32;;;;;;;10.30;7.75;;;21.10;76.70;;;;;;4999536;28;20515;-77
2022/12/02 07:11:59;;;;;;;8.20;6.63;;;21.20;76.70;;;;;;5003316;28;20211;-77
2022/12/02 07:14:34;;;;;;;8.83;7.37;;;21.20;76.60;;;;;;4993374;28;20460;-77
2022/12/02 07:17:03;;;;;;;8.03;7.23;;;21.10;76.60;;;;;;4987995;28;20475;-78
2022/12/02 07:19:37;;;;;;;7.57;6.78;;;21.10;76.50;;;;;;4982979;28;20461;-76
2022/12/02 07:22:14;;;;;;;9.07;7.40;;;21.10;76.70;;;;;;4990793;28;20668;-76
2022/12/02 07:24:45;;;;;;;7.63;6.67;;;21.20;76.60;;;;;;4993747;28;20206;-76
2022/12/02 07:27:20;;;;;;;7.20;5.95;;;21.10;76.50;;;;;;4991097;28;20467;-76
2022/12/02 07:29:48;;;;;;;7.00;5.93;;;21.10;76.50;;;;;;4989815;28;20217;-76
2022/12/02 07:32:15;;;;;;;8.53;6.57;;;21.10;76.50;;;;;;4994290;28;20196;-77
2022/12/02 07:34:42;;;;;;;7.00;5.87;;;21.10;76.90;;;;;;4991107;28;20460;-77
2022/12/02 07:37:08;;;;;;;7.63;6.40;;;21.10;76.90;;;;;;5003063;28;20454;-76
2022/12/02 07:39:35;;;;;;;8.20;7.03;;;21.20;77.00;;;;;;4993510;28;20460;-76
2022/12/02 07:42:03;;;;;;;7.57;6.77;;;21.20;76.90;;;;;;4992743;28;20459;-77
2022/12/02 07:44:30;;;;;;;7.27;6.10;;;21.20;76.90;;;;;;4991039;28;20456;-77
2022/12/02 07:46:57;;;;;;;9.03;6.87;;;21.20;76.90;;;;;;4996764;28;20463;-77
2022/12/02 07:49:23;;;;;;;8.17;7.00;;;21.20;76.80;;;;;;4989412;28;20467;-76
2022/12/02 07:51:50;;;;;;;8.30;6.82;;;21.20;76.90;;;;;;5003532;28;20467;-77
2022/12/02 07:54:17;;;;;;;9.33;7.53;;;21.20;76.90;;;;;;4995439;28;20212;-77
2022/12/02 07:56:44;;;;;;;6.70;6.07;;;21.20;76.90;;;;;;4998558;28;20452;-76
2022/12/02 07:59:12;;;;;;;6.70;6.10;;;21.20;76.90;;;;;;4995242;28;20475;-77
2022/12/02 08:01:38;;;;;;;7.63;5.93;;;21.30;77.00;;;;;;4991370;28;20576;-77
2022/12/02 08:04:05;;;;;;;7.87;7.00;;;21.30;77.00;;;;;;4990588;28;20460;-76
2022/12/02 08:06:32;;;;;;;8.27;6.27;;;21.30;77.00;;;;;;5002670;28;20966;-76
2022/12/02 08:08:59;;;;;;;8.17;6.90;;;21.30;77.00;;;;;;5000369;28;20463;-76
2022/12/02 08:11:25;;;;;;;8.30;7.40;;;21.30;77.00;;;;;;4990020;28;20891;-76
2022/12/02 08:13:52;;;;;;;7.40;6.10;;;21.30;77.00;;;;;;4990622;28;20466;-77
2022/12/02 08:16:20;;;;;;;6.17;5.37;;;21.30;76.90;;;;;;4998228;28;20866;-76
2022/12/02 08:18:47;;;;;;;6.33;5.73;;;21.30;77.00;;;;;;4996297;28;20452;-77
2022/12/02 08:21:13;;;;;;;6.80;6.20;;;21.30;77.00;;;;;;4986743;28;20464;-77
2022/12/02 08:23:40;;;;;;;7.57;6.30;;;21.30;77.00;;;;;;4994023;28;20456;-77
2022/12/02 08:26:07;;;;;;;7.57;6.87;;;21.30;77.00;;;;;;4994096;28;20456;-76
2022/12/02 08:28:33;;;;;;;7.73;6.70;;;21.30;77.00;;;;;;4997419;28;20456;-77
2022/12/02 08:31:00;;;;;;;8.97;6.53;;;21.30;76.90;;;;;;4986852;28;20488;-76
2022/12/02 08:33:28;;;;;;;7.60;6.90;;;21.30;76.90;;;;;;4990117;28;20499;-77
2022/12/02 08:35:55;;;;;;;6.27;5.67;;;21.30;76.90;;;;;;4987774;28;20832;-76
2022/12/02 08:38:22;;;;;;;6.60;5.93;;;21.30;76.90;;;;;;4988851;28;20816;-77
2022/12/02 08:40:49;;;;;;;7.30;6.03;;;21.30;76.80;;;;;;4987842;28;20471;-76
2022/12/02 08:43:15;;;;;;;7.13;5.77;;;21.30;76.80;;;;;;4991432;28;20468;-76
2022/12/02 08:45:43;;;;;;;7.00;5.70;;;21.30;76.90;;;;;;5000666;28;20459;-76
2022/12/02 08:48:10;;;;;;;8.47;6.40;;;21.30;76.90;;;;;;4988210;28;20461;-76
2022/12/02 08:50:38;;;;;;;7.23;6.23;;;21.30;76.90;;;;;;4990486;28;20591;-76
2022/12/02 08:53:05;;;;;;;6.33;5.73;;;21.30;76.90;;;;;;4999820;28;20459;-77
2022/12/02 08:55:32;;;;;;;7.43;6.33;;;21.30;76.90;;;;;;4991877;28;20459;-77
2022/12/02 08:57:59;;;;;;;7.90;7.00;;;21.30;76.80;;;;;;4994834;28;20462;-77
2022/12/02 09:00:26;;;;;;;6.10;5.50;;;21.30;76.80;;;;;;4994127;28;20463;-77
2022/12/02 09:02:52;;;;;;;6.87;6.17;;;21.30;76.80;;;;;;4991509;28;20490;-77
2022/12/02 09:05:19;;;;;;;7.17;6.43;;;21.30;76.80;;;;;;4993485;28;20460;-77
2022/12/02 09:07:47;;;;;;;6.63;5.47;;;21.30;76.80;;;;;;4997219;28;20502;-77
2022/12/02 09:10:15;;;;;;;6.40;5.40;;;21.30;77.60;;;;;;4993313;28;20932;-76
2022/12/02 09:12:41;;;;;;;6.40;5.60;;;21.30;76.90;;;;;;4989205;28;20460;-78
2022/12/02 09:15:09;;;;;;;6.00;5.20;;;21.30;76.80;;;;;;4984191;28;20472;-78
2022/12/02 09:17:35;;;;;;;6.10;5.10;;;21.30;76.80;;;;;;4989053;28;20459;-77
2022/12/02 09:20:04;;;;;;;8.07;5.53;;;21.30;77.10;;;;;;4995161;28;20839;-77
2022/12/02 09:22:30;;;;;;;8.43;6.60;;;21.30;76.70;;;;;;4988887;28;20789;-77
2022/12/02 09:24:58;;;;;;;7.03;6.23;;;21.30;76.70;;;;;;4989465;28;20460;-76
2022/12/02 09:27:25;;;;;;;8.17;6.47;;;21.30;76.60;;;;;;4998742;28;20511;-76
2022/12/02 09:29:52;;;;;;;7.67;6.70;;;21.30;76.60;;;;;;4991838;28;20452;-76
2022/12/02 09:32:19;;;;;;;8.13;6.70;;;21.30;76.50;;;;;;4990661;28;20471;-77
2022/12/02 09:34:46;;;;;;;8.03;7.23;;;21.20;76.30;;;;;;4990215;28;21026;-76
2022/12/02 09:37:13;;;;;;;7.63;6.40;;;21.20;76.40;;;;;;4991869;28;20464;-77
2022/12/02 09:39:40;;;;;;;9.00;7.07;;;21.20;76.10;;;;;;4993912;28;20456;-77
2022/12/02 09:42:11;;;;;;;8.13;6.60;;;21.20;76.30;;;;;;4992886;28;20985;-73
2022/12/02 09:44:38;;;;;;;10.80;6.77;;;21.10;76.40;;;;;;4997587;28;20490;-77
2022/12/02 09:47:06;;;;;;;7.80;7.00;;;21.00;79.10;;;;;;4998226;28;20973;-77
2022/12/02 09:49:34;;;;;;;8.70;6.93;;;21.10;78.90;;;;;;4993687;28;20436;-78
2022/12/02 09:52:03;;;;;;;6.73;5.47;;;21.00;78.10;;;;;;5004390;28;20483;-77
2022/12/02 09:54:30;;;;;;;5.30;4.70;;;21.10;77.90;;;;;;4996661;28;20464;-79
2022/12/02 09:56:58;;;;;;;7.53;6.00;;;21.20;77.60;;;;;;5000004;28;20463;-78
2022/12/02 09:59:28;;;;;;;7.37;6.30;;;21.30;77.40;;;;;;4997777;28;20461;-80
2022/12/02 10:01:57;;;;;;;6.67;5.97;;;21.40;77.40;;;;;;4991966;28;20828;-79
2022/12/02 10:04:24;;;;;;;12.17;6.63;;;21.40;77.10;;;;;;4993269;28;20835;-78
2022/12/02 10:06:51;;;;;;;6.10;5.17;;;21.40;77.10;;;;;;4991566;28;20452;-79
2022/12/02 10:09:23;;;;;;;7.67;6.97;;;21.50;77.10;;;;;;4994336;28;20958;-79
2022/12/02 10:11:50;;;;;;;6.43;5.73;;;21.50;77.00;;;;;;5005546;28;20475;-78
2022/12/02 10:14:16;;;;;;;7.03;6.20;;;21.50;76.80;;;;;;5000854;28;20463;-79
2022/12/02 10:16:46;;;;;;;10.67;6.53;;;21.50;76.80;;;;;;5002633;28;20489;-79
2022/12/02 10:19:16;;;;;;;6.13;5.33;;;21.50;76.80;;;;;;5005538;28;20459;-79
2022/12/02 10:21:43;;;;;;;6.40;5.57;;;21.50;76.90;;;;;;4993102;28;20459;-79
2022/12/02 10:34:22;;;;;;;8.50;5.87;;;21.40;76.80;;;;;;4982591;28;21094;-79
2022/12/02 10:36:50;;;;;;;7.57;6.40;;;21.40;76.90;;;;;;4988796;28;20466;-80
2022/12/02 10:39:22;;;;;;;7.50;6.13;;;21.40;76.90;;;;;;4997856;28;20455;-79
2022/12/02 10:41:50;;;;;;;6.20;5.60;;;21.40;76.80;;;;;;4997971;28;20513;-79
2022/12/02 10:44:18;;;;;;;7.57;6.43;;;21.40;76.90;;;;;;4985658;28;20452;-79
2022/12/02 10:46:45;;;;;;;6.50;5.90;;;21.40;76.80;;;;;;4999104;28;22130;-79
2022/12/02 10:49:34;;;;;;;6.30;5.30;;;21.40;77.60;;;;;;4992032;28;20462;-79
2022/12/02 10:52:07;;;;;;;5.90;5.30;;;21.30;76.80;;;;;;4984633;28;20488;-79
2022/12/02 10:54:35;;;;;;;7.80;6.30;;;21.30;76.90;;;;;;5001162;28;20971;-79
2022/12/02 10:57:03;;;;;;;6.50;5.80;;;21.30;76.90;;;;;;5000250;28;20938;-79
2022/12/02 10:59:32;;;;;;;6.80;5.70;;;21.30;76.90;;;;;;4991722;28;20472;-79
2022/12/02 11:01:59;;;;;;;6.60;5.77;;;21.30;76.90;;;;;;4995927;28;20949;-78
2022/12/02 11:04:29;;;;;;;7.10;6.40;;;21.30;77.00;;;;;;4993747;28;20456;-79
2022/12/02 11:06:57;;;;;;;9.13;6.50;;;21.30;77.00;;;;;;4985196;28;20445;-79
2022/12/02 11:09:25;;;;;;;6.27;5.67;;;21.30;76.90;;;;;;4994962;28;20458;-78
2022/12/02 11:11:52;;;;;;;6.47;5.83;;;21.30;76.80;;;;;;4990945;28;20496;-78
2022/12/02 11:14:54;;;;;;;8.30;6.07;;;21.30;76.90;;;;;;4993657;28;20449;-78
2022/12/02 11:17:50;;;;;;;6.00;5.33;;;21.40;76.90;;;;;;4982592;28;20585;-78
2022/12/02 11:20:38;;;;;;;6.70;5.70;;;21.40;76.80;;;;;;4987123;28;20468;-78
2022/12/02 11:23:28;;;;;;;7.40;5.13;;;21.40;76.80;;;;;;4990315;28;20464;-79
2022/12/02 11:26:10;;;;;;;6.83;6.10;;;21.40;76.70;;;;;;4986726;28;20479;-78
2022/12/02 11:29:15;;;;;;;6.63;6.03;;;21.40;76.70;;;;;;4980094;28;20463;-78
2022/12/02 11:31:42;;;;;;;7.33;5.87;;;21.40;76.80;;;;;;4990760;28;20480;-79
2022/12/02 11:34:41;;;;;;;5.17;4.60;;;21.40;76.80;;;;;;4989968;28;20515;-78
2022/12/02 11:37:39;;;;;;;6.40;5.30;;;21.40;76.60;;;;;;4988280;28;20459;-79
2022/12/02 11:40:58;;;;;;;6.67;5.97;;;21.40;76.80;;;;;;4992668;28;20459;-78
2022/12/02 11:43:57;;;;;;;7.20;6.50;;;21.40;76.70;;;;;;4989634;28;20501;-78
2022/12/02 11:46:42;;;;;;;7.10;6.30;;;21.40;76.70;;;;;;4993150;28;20467;-78
2022/12/02 11:49:31;;;;;;;6.50;5.17;;;21.40;76.70;;;;;;4992341;28;20454;-78
2022/12/02 11:52:05;;;;;;;6.33;5.70;;;21.40;76.80;;;;;;4984825;28;20967;-78
2022/12/02 11:54:36;;;;;;;6.60;5.90;;;21.40;76.70;;;;;;4992987;28;20474;-79
2022/12/02 11:57:04;;;;;;;6.73;6.13;;;21.40;76.80;;;;;;4991330;28;20483;-77
2022/12/02 11:59:34;;;;;;;7.80;6.50;;;21.40;76.80;;;;;;4988347;28;20987;-76
2022/12/02 12:02:10;;;;;;;8.33;5.30;;;21.40;76.80;;;;;;4992535;28;20470;-79
2022/12/02 12:04:37;;;;;;;11.57;5.80;;;21.40;76.70;;;;;;4988546;28;20482;-78
2022/12/02 12:07:07;;;;;;;7.50;6.70;;;21.40;77.90;;;;;;4986195;28;20463;-87
2022/12/02 12:09:34;;;;;;;7.33;6.30;;;21.50;77.90;;;;;;4985219;28;20448;-83
2022/12/02 12:12:14;;;;;;;9.53;6.63;;;21.60;77.90;;;;;;4995144;28;20476;-84
2022/12/02 12:15:01;;;;;;;11.43;5.90;;;21.60;77.80;;;;;;5001718;28;20472;-84
2022/12/02 12:17:34;;;;;;;12.10;7.40;;;21.40;77.40;;;;;;4987771;28;20536;-84
2022/12/02 12:20:00;;;;;;;10.40;6.93;;;21.60;78.10;;;;;;4993840;28;20459;-84
2022/12/02 12:22:29;;;;;;;9.90;6.00;;;21.60;78.20;;;;;;4993205;28;20460;-85
2022/12/02 12:25:31;;;;;;;5.83;5.23;;;21.70;78.20;;;;;;5005005;28;20912;-85
2022/12/02 12:27:59;;;;;;;6.20;5.60;;;21.70;78.10;;;;;;4984578;28;20456;-84
2022/12/02 12:30:29;;;;;;;8.00;5.20;;;21.70;78.10;;;;;;4977617;28;20452;-86
2022/12/02 12:32:56;;;;;;;7.17;6.47;;;21.70;78.00;;;;;;4988485;28;20456;-86
2022/12/02 12:35:22;;;;;;;7.40;6.70;;;21.70;78.20;;;;;;4995006;28;20452;-85
2022/12/02 12:37:49;;;;;;;8.90;6.90;;;21.80;78.10;;;;;;4994421;28;20582;-85
2022/12/02 12:40:16;;;;;;;10.07;8.63;;;21.70;79.30;;;;;;5007571;28;20447;-85
2022/12/02 12:42:43;;;;;;;7.23;6.53;;;21.70;78.40;;;;;;4998986;28;20424;-85
2022/12/02 12:45:11;;;;;;;7.50;6.50;;;21.80;78.20;;;;;;4986285;28;20467;-85
2022/12/02 12:47:38;;;;;;;7.53;6.73;;;21.90;78.00;;;;;;4989552;28;20459;-83
2022/12/02 12:50:06;;;;;;;7.13;6.43;;;21.80;77.90;;;;;;4989494;28;20454;-85
2022/12/02 12:52:32;;;;;;;8.00;6.73;;;21.80;78.10;;;;;;4989427;28;20476;-81
2022/12/02 12:54:59;;;;;;;7.00;6.30;;;21.80;78.10;;;;;;4994885;28;20444;-85
2022/12/02 12:57:26;;;;;;;19.33;6.00;;;21.70;78.80;;;;;;4983838;28;20452;-85
2022/12/02 12:59:53;;;;;;;7.13;6.47;;;21.80;78.40;;;;;;4992802;28;20982;-86
2022/12/02 13:02:21;;;;;;;6.33;5.73;;;21.90;78.30;;;;;;4989727;28;20445;-85
2022/12/02 13:04:47;;;;;;;7.00;6.30;;;21.90;78.20;;;;;;4994879;28;20848;-85
2022/12/02 13:07:14;;;;;;;6.73;5.90;;;21.90;78.20;;;;;;4997645;28;20444;-86
2022/12/02 13:09:41;;;;;;;8.40;6.70;;;21.90;78.10;;;;;;4986863;28;20996;-85
2022/12/02 13:12:11;;;;;;;8.43;7.43;;;21.80;78.60;;;;;;5002011;28;20487;-87
2022/12/02 13:14:38;;;;;;;7.13;6.43;;;21.90;78.50;;;;;;4998826;28;20456;-83